Latest Coastal Weather Observations for Kingfish B

IDV60701

Issued at 3:31 am EDT Thursday 2 April 2015 (issued every 10 minutes, with the page automatically refreshed every 10 minutes)

About coastal observations | Map of coastal stations | Coastal observations for VIC | Marine services | Other Formats
Station Details ID: 400139 Name: KINGFISH B (PLATFORM) Lat: -38.60 Lon: 148.19 Height: 31.4 m
Data from the previous 72 hours. | See also: Recent months for locations in Victoria
Date/Time
EDT
Temp

°C
Wind Pressure Rain
since 9am
mm
Weather Cloud Vis
km
Sea
Height
m
Swell
Dir
 
Speed
knots
Gust
knots
hPa Trend Height
m
Period
s
Dir
02/03:30am 22.5 NNW 16 25 1010.4 - - - - - - - - -
02/03:20am 22.7 N 19 23 1010.0 - - - - - - - - -
02/03:10am 22.7 N 21 24 1010.0 - - - - - - - - -
02/03:00am 22.7 N 20 25 1009.9 - - - - - - - - -
02/02:50am 22.6 N 20 24 1010.1 - - - - - - - - -
02/02:40am 22.6 N 21 24 1010.2 - - - - - - - - -
02/02:30am 22.6 N 20 23 1010.4 - - - - - - - - -
02/02:20am 22.7 NNW 20 25 1010.6 - - - - - - - - -
02/02:10am 22.9 NNW 20 23 1010.7 - - - - - - - - -
02/02:00am 23.0 NNW 22 23 1010.9 - - - - - - - - -
02/01:50am 23.0 NNW 22 24 1011.1 - - - - - - - - -
02/01:40am 23.0 NNW 22 24 1011.2 - - - - - - - - -
02/01:30am 23.0 NNW 22 23 1011.3 - - - - - - - - -
02/01:20am 22.6 NNW 21 23 1011.4 - - - - - - - - -
02/01:10am 22.3 NNW 18 21 1011.6 - - - - - - - - -
02/01:00am 22.3 NNW 16 19 1011.8 - - - - - - - - -
02/12:50am 22.5 NW 15 16 1011.9 - - - - - - - - -
02/12:40am 22.6 NW 15 16 1012.1 - - - - - - - - -
02/12:30am 22.8 NNW 18 19 1012.3 - - - - - - - - -
02/12:20am 22.6 NW 17 18 1012.5 - - - - - - - - -
02/12:10am 22.4 NW 16 18 1012.6 - - - - - - - - -
02/12:00am 22.5 NW 16 16 1012.6 - - - - - - - - -
 
Date/Time
EDT
Temp

°C
Wind Pressure Rain
since 9am
mm
Weather Cloud Vis
km
Sea
Height
m
Swell
Dir
 
Speed
knots
Gust
knots
hPa Trend Height
m
Period
s
Dir
01/11:40pm 22.0 NW 17 19 1012.5 - - - - - - - - -
01/11:30pm 21.6 NNW 13 15 1012.6 - - - - - - - - -
01/11:20pm 21.3 N 12 14 1012.6 - - - - - - - - -
01/11:10pm 21.1 - 12 14 1012.8 - - - - - - - - -
01/11:00pm 21.1 N 12 13 1012.9 - - - - - - - - -
01/10:50pm 21.2 NNE 12 14 1012.8 - - - - - - - - -
01/10:40pm 21.3 NNE 11 13 1013.1 - - - - - - - - -
01/10:30pm 21.4 NNE 12 13 1013.1 - - - - - - - - -
01/10:20pm 21.6 NNE 12 13 1013.2 - - - - - - - - -
01/10:10pm 21.6 NNE 13 14 1013.2 - - - - - - - - -
01/10:00pm 21.7 NNE 14 15 1013.3 - - - - - - - - -
01/09:50pm 21.8 NNE 15 16 1013.4 - - - - - - - - -
01/09:40pm 21.6 NNE 16 17 1013.3 - - - - - - - - -
01/09:30pm 21.6 NNE 15 16 1013.2 - - - - - - - - -
01/09:20pm 21.4 NNE 17 18 1013.1 - - - - - - - - -
01/09:10pm 21.3 NNE 17 17 1013.1 - - - - - - - - -
01/09:00pm 21.3 NNE 16 17 1013.1 - - - - - - - - -
01/08:50pm 21.4 NE 15 17 1013.0 - - - - - - - - -
01/08:40pm 21.5 NE 16 18 1013.0 - - - - - - - - -
01/08:30pm 21.5 NE 17 18 1012.9 - - - - - - - - -
01/08:20pm 21.5 NE 16 17 1013.0 - - - - - - - - -
01/08:10pm 21.6 NE 14 16 1013.0 - - - - - - - - -
01/08:00pm 21.6 NE 14 15 1013.1 - - - - - - - - -
01/07:50pm 21.6 NE 14 15 1013.1 - - - - - - - - -
01/07:40pm 21.5 NE 14 14 1013.1 - - - - - - - - -
01/07:30pm 21.3 NE 13 14 1013.1 - - - - - - - - -
01/07:20pm 21.2 NE 12 14 1013.2 - - - - - - - - -
01/07:10pm 21.0 NE 13 14 1013.2 - - - - - - - - -
01/07:00pm 21.0 NE 12 14 1013.1 - - - - - - - - -
01/06:50pm 21.0 NE 11 12 1013.1 - - - - - - - - -
01/06:40pm 21.0 NE 11 13 1013.2 - - - - - - - - -
01/06:30pm 21.0 NE 11 12 1013.3 - - - - - - - - -
01/06:20pm 20.9 NE 11 12 1013.4 - - - - - - - - -
01/06:10pm 20.8 NE 11 11 1013.5 - - - - - - - - -
01/06:00pm 20.7 NE 10 11 1013.7 - - - - - - - - -
01/05:50pm 20.7 NE 9 10 1013.8 - - - - - - - - -
01/05:40pm 20.6 NE 9 10 1013.9 - - - - - - - - -
01/05:30pm 20.7 NE 9 10 1013.9 - - - - - - - - -
01/05:20pm 20.8 NE 9 10 1014.1 - - - - - - - - -
01/05:10pm 20.8 NE 8 9 1014.2 - - - - - - - - -
01/05:00pm 20.8 NE 8 8 1014.3 - - - - - - - - -
01/04:40pm 20.7 NE 6 7 1014.6 - - - - - - - - -
01/04:30pm 20.7 NE 7 7 1014.8 - - - - - - - - -
01/04:20pm 20.7 NE 6 7 1015.0 - - - - - - - - -
01/04:00pm 21.2 NE 5 6 1015.3 - - - - - - - - -
01/03:50pm 21.4 NE 5 6 1015.4 - - - - - - - - -
01/03:40pm 21.5 NNE 4 5 1015.5 - - - - - - - - -
01/03:30pm 21.5 NNE 4 4 1015.6 - - - - - - - - -
01/03:20pm 21.4 NNE 2 4 1015.8 - - - - - - - - -
01/03:10pm 21.4 NNE 1 3 1015.9 - - - - - - - - -
01/03:00pm 21.6 NNE 2 3 1016.0 - - - - - - - - -
01/02:50pm 21.8 N 2 4 1016.2 - - - - - - - - -
01/02:40pm 21.7 N 3 4 1016.3 - - - - - - - - -
01/02:30pm 21.5 N 4 5 1016.4 - - - - - - - - -
01/02:20pm 21.2 N 5 6 1016.7 - - - - - - - - -
01/02:10pm 20.9 - 5 6 1016.9 - - - - - - - - -
01/02:00pm 20.8 N 6 8 1017.0 - - - - - - - - -
01/01:50pm 20.6 N 7 8 1017.3 - - - - - - - - -
01/01:40pm 20.5 N 8 9 1017.5 - - - - - - - - -
01/01:30pm 20.4 - 8 10 1017.7 - - - - - - - - -
01/01:20pm 20.2 N 8 9 1017.9 - - - - - - - - -
01/01:10pm 20.2 N 6 8 1018.0 - - - - - - - - -
01/01:00pm 20.2 N 6 9 1018.2 - - - - - - - - -
01/12:50pm 20.3 N 7 10 1018.4 - - - - - - - - -
01/12:40pm 20.7 NNW 6 8 1018.5 - - - - - - - - -
01/12:30pm 20.4 NNW 6 7 1018.7 - - - - - - - - -
01/12:20pm 20.2 NNW 7 8 1018.9 - - - - - - - - -
01/12:10pm 20.2 N 6 8 1018.9 - - - - - - - - -
01/12:00pm 20.1 N 7 9 1019.1 - - - - - - - - -
01/11:50am 20.1 NNW 7 10 1019.3 - - - - - - - - -
01/11:40am 20.1 N 8 10 1019.4 - - - - - - - - -
01/11:30am 20.0 N 7 9 1019.5 - - - - - - - - -
01/11:20am 20.1 N 7 10 1019.6 - - - - - - - - -
01/11:10am 20.0 N 7 9 1019.6 - - - - - - - - -
01/11:00am 19.8 N 6 8 1019.7 - - - - - - - - -
01/10:50am 19.5 N 7 9 1019.8 - - - - - - - - -
01/08:40am 16.8 NNW 5 7 1019.9 - - - - - - - - -
01/08:20am 16.9 NNW 5 6 1019.9 - - - - - - - - -
01/08:10am 16.9 NW 4 5 1020.0 - - - - - - - - -
01/08:00am 17.0 NW 4 6 1020.0 - - - - - - - - -
01/07:50am 17.0 NW 5 7 1019.9 - - - - - - - - -
01/07:40am 17.2 NW 6 8 1019.8 - - - - - - - - -
01/07:30am 17.3 NW 5 7 1019.7 - - - - - - - - -
01/07:20am 17.4 NW 4 5 1019.6 - - - - - - - - -
01/07:10am 17.6 NW 4 6 1019.6 - - - - - - - - -
01/07:00am 17.6 NW 6 7 1019.7 - - - - - - - - -
01/06:50am 17.6 NW 7 10 1019.7 - - - - - - - - -
01/06:40am 17.7 NW 8 9 1019.7 - - - - - - - - -
01/06:30am 17.7 NW 9 11 1019.7 - - - - - - - - -
01/06:20am 17.7 NW 8 10 1019.7 - - - - - - - - -
01/06:10am 17.7 NW 8 11 1019.7 - - - - - - - - -
01/06:00am 17.7 NW 9 11 1019.8 - - - - - - - - -
01/05:50am 17.8 NW 9 11 1019.8 - - - - - - - - -
01/05:40am 18.2 NW 9 11 1019.8 - - - - - - - - -
01/05:30am 18.4 NW 9 11 1019.8 - - - - - - - - -
01/05:20am 18.7 NNW 8 9 1019.8 - - - - - - - - -
01/05:10am 18.9 N 7 9 1019.9 - - - - - - - - -
01/05:00am 18.8 N 6 7 1020.0 - - - - - - - - -
01/04:50am 18.9 NNE 6 7 1020.1 - - - - - - - - -
01/04:40am 19.0 NNE 7 7 1020.3 - - - - - - - - -
01/04:30am 19.1 NNE 7 8 1020.3 - - - - - - - - -
01/04:20am 19.2 NNE 6 7 1020.4 - - - - - - - - -
01/04:10am 19.2 NE 6 7 1020.6 - - - - - - - - -
01/04:00am 19.3 NE 6 7 1020.7 - - - - - - - - -
01/03:50am 19.5 NE 6 7 1021.0 - - - - - - - - -
01/03:40am 19.5 NE 6 7 1021.2 - - - - - - - - -
01/03:30am 19.5 NE 5 6 1021.3 - - - - - - - - -
01/03:20am 19.4 NE 4 5 1021.4 - - - - - - - - -
01/03:10am 19.3 NE 4 5 1021.5 - - - - - - - - -
01/03:00am 19.3 NE 3 5 1021.7 - - - - - - - - -
01/02:50am 19.2 NE 3 5 1021.9 - - - - - - - - -
01/02:40am 19.3 NE 4 5 1021.9 - - - - - - - - -
01/02:30am 19.3 NE 5 6 1021.9 - - - - - - - - -
01/02:20am 19.3 NE 5 6 1022.0 - - - - - - - - -
01/02:10am 19.3 NE 4 5 1022.1 - - - - - - - - -
01/02:00am 19.3 NE 2 4 1022.3 - - - - - - - - -
01/01:30am 19.3 ENE 1 2 1022.8 - - - - - - - - -
01/01:20am 19.3 ENE 1 2 1022.9 - - - - - - - - -
01/01:10am 19.4 ENE 2 2 1023.0 - - - - - - - - -
01/01:00am 19.6 ENE 2 3 1023.1 - - - - - - - - -
01/12:50am 19.7 E 2 3 1023.1 - - - - - - - - -
01/12:40am 19.7 E 3 4 1023.2 - - - - - - - - -
01/12:30am 19.8 ESE 3 3 1023.3 - - - - - - - - -
01/12:20am 19.8 E 3 4 1023.3 - - - - - - - - -
 
Date/Time
EDT
Temp

°C
Wind Pressure Rain
since 9am
mm
Weather Cloud Vis
km
Sea
Height
m
Swell
Dir
 
Speed
knots
Gust
knots
hPa Trend Height
m
Period
s
Dir
31/11:30pm 19.6 E 5 5 1023.2 - - - - - - - - -
31/11:20pm 19.6 E 5 6 1023.3 - - - - - - - - -
31/11:10pm 19.6 E 5 6 1023.3 - - - - - - - - -
31/11:00pm 19.6 E 5 6 1023.3 - - - - - - - - -
31/10:50pm 19.6 E 5 6 1023.3 - - - - - - - - -
31/10:40pm 19.6 E 5 7 1023.3 - - - - - - - - -
31/10:30pm 19.6 E 5 6 1023.3 - - - - - - - - -
31/10:20pm 19.6 E 6 7 1023.4 - - - - - - - - -
31/10:10pm 19.5 E 7 9 1023.3 - - - - - - - - -
31/10:00pm 19.5 ENE 8 9 1023.2 - - - - - - - - -
31/09:50pm 19.5 E 8 10 1023.3 - - - - - - - - -
31/09:40pm 19.4 E 8 10 1023.2 - - - - - - - - -
31/09:30pm 19.4 E 9 11 1023.2 - - - - - - - - -
31/09:20pm 19.4 E 9 11 1023.2 - - - - - - - - -
31/09:10pm 19.3 ENE 10 12 1023.1 - - - - - - - - -
31/09:00pm 19.3 ENE 10 12 1023.1 - - - - - - - - -
31/08:50pm 19.3 ENE 11 13 1023.0 - - - - - - - - -
31/08:40pm 19.2 ENE 11 12 1022.9 - - - - - - - - -
31/08:30pm 19.2 ENE 11 13 1022.8 - - - - - - - - -
31/08:20pm 19.1 ENE 12 13 1022.8 - - - - - - - - -
31/08:10pm 19.1 ENE 12 13 1022.8 - - - - - - - - -
31/07:50pm 19.0 ENE 12 14 1022.9 - - - - - - - - -
31/07:40pm 18.9 ENE 11 13 1023.0 - - - - - - - - -
31/07:30pm 19.0 ENE 11 13 1023.0 - - - - - - - - -
31/07:20pm 19.0 ENE 11 13 1023.0 - - - - - - - - -
31/07:10pm 19.0 ENE 11 13 1023.1 - - - - - - - - -
31/07:00pm 19.0 ENE 10 12 1023.2 - - - - - - - - -
31/06:50pm 19.0 ENE 11 13 1023.2 - - - - - - - - -
31/06:40pm 19.1 ENE 9 11 1023.5 - - - - - - - - -
31/06:30pm 19.1 ENE 9 10 1023.5 - - - - - - - - -
31/06:20pm 19.1 ENE 9 10 1023.6 - - - - - - - - -
31/06:10pm 19.1 E 6 9 1023.7 - - - - - - - - -
31/06:00pm 19.1 ENE 7 10 1023.4 - - - - - - - - -
31/05:50pm 19.2 ENE 7 11 1023.3 - - - - - - - - -
31/05:40pm 19.2 ENE 9 12 1023.3 - - - - - - - - -
31/05:30pm 19.2 ENE 10 13 1023.3 - - - - - - - - -
31/05:20pm 19.2 ENE 8 12 1023.4 - - - - - - - - -
31/05:10pm 19.1 ENE 9 12 1023.5 - - - - - - - - -
31/05:00pm 19.2 ENE 10 12 1023.5 - - - - - - - - -
31/04:50pm 19.3 ENE 8 11 1023.6 - - - - - - - - -
31/04:40pm 19.4 ENE 7 10 1023.8 - - - - - - - - -
31/04:30pm 19.4 ENE 6 9 1024.0 - - - - - - - - -
31/04:20pm 19.6 ENE 5 8 1024.1 - - - - - - - - -
31/04:10pm 19.5 ENE 5 8 1024.3 - - - - - - - - -
31/04:00pm 19.4 ENE 5 7 1024.4 - - - - - - - - -
31/03:50pm 19.3 ENE 4 6 1024.4 - - - - - - - - -
31/03:40pm 19.1 ENE 5 7 1024.4 - - - - - - - - -
31/03:30pm 19.2 ENE 5 7 1024.4 - - - - - - - - -
31/03:20pm 19.3 ENE 4 6 1024.4 - - - - - - - - -
31/03:10pm 19.5 ENE 4 7 1024.5 - - - - - - - - -
31/03:00pm 19.6 ENE 4 6 1024.6 - - - - - - - - -
31/02:50pm 19.6 ENE 4 6 1024.7 - - - - - - - - -
31/02:40pm 19.6 NE 3 6 1024.9 - - - - - - - - -
31/02:30pm 19.5 ENE 4 6 1025.1 - - - - - - - - -
31/02:20pm 19.4 ENE 3 5 1025.4 - - - - - - - - -
31/02:10pm 19.5 ENE 2 4 1025.6 - - - - - - - - -
31/02:00pm 19.9 ENE 2 4 1025.9 - - - - - - - - -
31/01:50pm 19.9 ENE 2 4 1026.1 - - - - - - - - -
31/01:40pm 20.1 ENE 1 3 1026.3 - - - - - - - - -
31/01:30pm 20.1 ENE 1 3 1026.5 - - - - - - - - -
31/01:20pm 20.2 ENE 1 2 1026.7 - - - - - - - - -
31/01:10pm 20.3 CALM 0 2 1026.8 - - - - - - - - -
31/01:00pm 20.3 CALM 0 2 1026.9 - - - - - - - - -
31/12:50pm 20.5 CALM 0 2 1026.9 - - - - - - - - -
31/12:40pm 20.5 CALM 0 2 1026.9 - - - - - - - - -
31/12:30pm 19.8 CALM 0 1 1027.0 - - - - - - - - -
31/12:20pm 19.7 CALM 0 0 1027.3 - - - - - - - - -
31/12:10pm 19.7 CALM 0 1 1027.4 - - - - - - - - -
31/12:00pm 20.3 CALM 0 0 1027.5 - - - - - - - - -
31/11:50am 20.1 CALM 0 0 1027.4 - - - - - - - - -
31/11:40am 19.8 CALM 0 0 1027.5 - - - - - - - - -
31/11:30am 20.0 CALM 0 0 1027.5 - - - - - - - - -
31/11:20am 19.8 CALM 0 0 1027.5 - - - - - - - - -
31/11:10am 19.9 CALM 0 0 1027.4 - - - - - - - - -
31/11:00am 19.9 CALM 0 0 1027.3 - - - - - - - - -
31/10:50am 19.9 CALM 0 0 1027.2 - - - - - - - - -
31/10:40am 19.9 CALM 0 0 1027.1 - - - - - - - - -
31/10:30am 19.5 CALM 0 0 1027.0 - - - - - - - - -
31/10:20am 19.8 CALM 0 0 1026.9 - - - - - - - - -
31/10:10am 19.9 CALM 0 0 1026.9 - - - - - - - - -
31/10:00am 19.4 CALM 0 0 1026.8 - - - - - - - - -
31/09:50am 19.0 CALM 0 0 1026.7 - - - - - - - - -
31/09:40am 18.7 CALM 0 0 1026.6 - - - - - - - - -
31/09:30am 18.3 CALM 0 0 1026.4 - - - - - - - - -
31/09:20am 18.0 CALM 0 0 1026.4 - - - - - - - - -
31/09:10am 17.9 CALM 0 0 1026.4 - - - - - - - - -
31/09:00am 17.7 CALM 0 0 1026.3 - - - - - - - - -
31/08:50am 17.5 CALM 0 0 1026.2 - - - - - - - - -
31/08:40am 17.3 CALM 0 0 1026.1 - - - - - - - - -
31/08:30am 17.2 CALM 0 0 1026.0 - - - - - - - - -
31/08:10am 17.1 CALM 0 0 1025.8 - - - - - - - - -
31/08:00am 17.1 CALM 0 0 1025.9 - - - - - - - - -
31/07:50am 17.0 CALM 0 0 1025.9 - - - - - - - - -
31/07:40am 16.9 CALM 0 1 1025.8 - - - - - - - - -
31/07:30am 16.9 CALM 0 1 1025.7 - - - - - - - - -
31/07:20am 16.9 CALM 0 1 1025.7 - - - - - - - - -
31/07:10am 16.7 CALM 0 0 1025.6 - - - - - - - - -
31/07:00am 16.6 CALM 0 0 1025.6 - - - - - - - - -
31/06:50am 16.7 CALM 0 0 1025.6 - - - - - - - - -
31/03:20am 17.0 WNW 2 3 1026.2 - - - - - - - - -
31/03:10am 17.0 WNW 3 4 1026.1 - - - - - - - - -
31/03:00am 17.0 WNW 3 4 1026.2 - - - - - - - - -
31/02:50am 17.0 WNW 3 4 1026.2 - - - - - - - - -
31/02:40am 17.0 WNW 3 4 1026.2 - - - - - - - - -
31/02:30am 17.1 WNW 3 4 1026.1 - - - - - - - - -
31/02:20am 17.1 WNW 3 4 1026.1 - - - - - - - - -
31/02:10am 17.1 WNW 3 4 1026.1 - - - - - - - - -
31/01:50am 17.0 WNW 2 3 1026.2 - - - - - - - - -
31/01:40am 16.9 WNW 2 3 1026.3 - - - - - - - - -
31/01:30am 17.0 W 2 3 1026.3 - - - - - - - - -
31/01:20am 17.1 W 2 3 1026.3 - - - - - - - - -
31/01:10am 17.1 W 1 2 1026.4 - - - - - - - - -
31/01:00am 17.1 W 1 2 1026.4 - - - - - - - - -
31/12:50am 17.1 WSW 1 2 1026.4 - - - - - - - - -
31/12:40am 17.0 W 1 2 1026.4 - - - - - - - - -
31/12:30am 17.2 W 1 1 1026.5 - - - - - - - - -
31/12:20am 17.3 CALM 0 1 1026.5 - - - - - - - - -
31/12:10am 17.0 CALM 0 1 1026.5 - - - - - - - - -
31/12:00am 16.9 CALM 0 1 1026.6 - - - - - - - - -
 
Date/Time
EDT
Temp

°C
Wind Pressure Rain
since 9am
mm
Weather Cloud Vis
km
Sea
Height
m
Swell
Dir
 
Speed
knots
Gust
knots
hPa Trend Height
m
Period
s
Dir
30/11:50pm 16.8 CALM 0 1 1026.6 - - - - - - - - -
30/11:40pm 16.9 CALM 0 1 1026.6 - - - - - - - - -
30/11:30pm 17.0 CALM 0 1 1026.5 - - - - - - - - -
30/11:20pm 17.2 CALM 0 1 1026.6 - - - - - - - - -
30/11:10pm 17.3 CALM 0 1 1026.6 - - - - - - - - -
30/11:00pm 17.3 CALM 0 1 1026.5 - - - - - - - - -
30/10:50pm 17.3 SSW 1 2 1026.5 - - - - - - - - -
30/10:40pm 17.3 SSW 2 3 1026.4 - - - - - - - - -
30/10:30pm 17.4 SSW 4 5 1026.4 - - - - - - - - -
30/10:20pm 17.4 SSW 5 6 1026.4 - - - - - - - - -
30/10:10pm 17.5 SSW 5 6 1026.3 - - - - - - - - -
30/10:00pm 17.5 SSW 3 5 1026.2 - - - - - - - - -
30/09:50pm 17.6 SSW 2 3 1026.1 - - - - - - - - -
30/09:40pm 17.5 SSW 1 2 1026.0 - - - - - - - - -
30/09:30pm 17.5 SSW 1 2 1025.9 - - - - - - - - -
30/09:20pm 17.4 SSW 1 2 1025.8 - - - - - - - - -
30/09:10pm 17.4 SSW 1 1 1025.7 - - - - - - - - -
30/09:00pm 17.3 CALM 0 0 1025.6 - - - - - - - - -
30/08:50pm 17.3 CALM 0 0 1025.4 - - - - - - - - -
30/08:40pm 17.3 CALM 0 0 1025.3 - - - - - - - - -
30/08:30pm 17.3 CALM 0 0 1025.2 - - - - - - - - -
30/08:20pm 17.5 CALM 0 1 1025.1 - - - - - - - - -
30/08:10pm 17.6 SSW 1 2 1025.0 - - - - - - - - -
30/08:00pm 17.6 SSW 3 4 1024.9 - - - - - - - - -
30/07:50pm 17.6 S 3 4 1024.8 - - - - - - - - -
30/07:40pm 17.6 S 4 5 1024.7 - - - - - - - - -
30/07:30pm 17.5 S 4 5 1024.5 - - - - - - - - -
30/07:20pm 17.5 S 5 7 1024.4 - - - - - - - - -
30/07:10pm 17.6 S 6 7 1024.3 - - - - - - - - -
30/07:00pm 17.6 S 5 7 1024.1 - - - - - - - - -
30/06:50pm 17.7 S 5 6 1024.0 - - - - - - - - -
30/06:40pm 17.7 S 5 6 1023.9 - - - - - - - - -
30/06:30pm 17.7 S 5 7 1023.8 - - - - - - - - -
30/06:20pm 17.8 S 7 8 1023.7 - - - - - - - - -
30/06:10pm 17.8 S 8 9 1023.7 - - - - - - - - -
30/06:00pm 17.8 S 6 7 1023.7 - - - - - - - - -
30/05:40pm 17.8 S 5 6 1023.6 - - - - - - - - -
30/05:30pm 17.8 S 4 5 1023.6 - - - - - - - - -
30/05:20pm 17.7 S 4 5 1023.6 - - - - - - - - -
30/05:10pm 17.8 SSW 3 4 1023.6 - - - - - - - - -
30/05:00pm 17.7 SSW 4 5 1023.6 - - - - - - - - -
30/04:50pm 17.7 SSW 5 7 1023.7 - - - - - - - - -
30/04:40pm 17.9 SSW 5 6 1023.7 - - - - - - - - -
30/04:20pm 18.0 SSW 6 7 1023.7 - - - - - - - - -
30/04:10pm 18.4 SSW 6 7 1023.7 - - - - - - - - -
30/04:00pm 18.5 SSW 5 7 1023.6 - - - - - - - - -
30/03:50pm 18.5 SW 4 5 1023.5 - - - - - - - - -
30/03:40pm 18.6 SW 4 5 1023.5 - - - - - - - - -
30/03:30pm 18.7 SW 4 5 1023.6 - - - - - - - - -
30/03:20pm 18.7 SW 5 6 1023.6 - - - - - - - - -
30/03:10pm 18.8 SW 4 5 1023.6 - - - - - - - - -
30/03:00pm 18.9 WSW 4 5 1023.7 - - - - - - - - -
30/02:50pm 18.9 WSW 4 5 1023.8 - - - - - - - - -
30/02:40pm 18.9 WSW 3 5 1023.9 - - - - - - - - -
30/02:30pm 18.9 WSW 4 4 1024.0 - - - - - - - - -
30/02:20pm 18.9 WSW 4 5 1024.1 - - - - - - - - -
30/02:10pm 18.9 WSW 4 5 1024.1 - - - - - - - - -
30/02:00pm 18.8 WSW 4 5 1024.1 - - - - - - - - -
30/01:50pm 18.5 W 4 5 1024.2 - - - - - - - - -
30/01:40pm 18.2 W 4 6 1024.2 - - - - - - - - -
30/01:30pm 18.1 WNW 5 7 1024.2 - - - - - - - - -
30/01:20pm 18.3 WNW 6 7 1024.2 - - - - - - - - -
30/01:10pm 18.5 WNW 6 7 1024.2 - - - - - - - - -
30/01:00pm 18.7 WNW 6 7 1024.3 - - - - - - - - -
30/12:50pm 18.7 WNW 6 7 1024.4 - - - - - - - - -
30/12:40pm 18.6 W 6 7 1024.4 - - - - - - - - -
30/12:30pm 18.6 WNW 6 8 1024.5 - - - - - - - - -
30/12:20pm 18.7 WNW 7 8 1024.6 - - - - - - - - -
30/12:10pm 18.8 WNW 6 8 1024.6 - - - - - - - - -
30/12:00pm 19.1 W 7 8 1024.6 - - - - - - - - -
30/11:50am 19.2 W 7 8 1024.6 - - - - - - - - -
30/11:40am 19.3 W 7 8 1024.6 - - - - - - - - -
30/11:30am 19.1 W 7 8 1024.6 - - - - - - - - -
30/11:20am 19.1 W 6 8 1024.5 - - - - - - - - -
30/11:10am 19.0 WNW 7 9 1024.5 - - - - - - - - -
30/11:00am 19.1 WNW 7 8 1024.3 - - - - - - - - -
30/10:50am 19.1 WNW 7 8 1024.2 - - - - - - - - -
30/10:40am 19.1 WNW 7 8 1024.2 - - - - - - - - -
30/10:30am 19.0 WNW 7 8 1024.1 - - - - - - - - -
30/10:20am 18.9 WNW 7 9 1024.0 - - - - - - - - -
30/10:10am 18.8 WNW 7 8 1024.0 - - - - - - - - -
30/10:00am 18.7 WNW 7 8 1023.9 - - - - - - - - -
30/09:50am 18.6 WNW 7 8 1023.7 - - - - - - - - -
30/09:40am 18.5 WNW 6 7 1023.6 - - - - - - - - -
30/09:30am 18.4 WNW 6 8 1023.5 - - - - - - - - -
30/09:20am 18.1 WNW 6 7 1023.5 - - - - - - - - -
30/09:10am 17.9 WNW 6 7 1023.4 - - - - - - - - -
30/09:00am 17.6 WNW 7 8 1023.3 - - - - - - - - -
30/08:50am 17.2 NW 8 9 1023.3 - - - - - - - - -
30/08:40am 16.9 NW 7 8 1023.2 - - - - - - - - -
30/08:30am 16.6 NW 7 8 1023.1 - - - - - - - - -
30/08:20am 16.5 NW 6 7 1023.1 - - - - - - - - -
30/08:10am 16.3 NW 6 7 1023.0 - - - - - - - - -
30/08:00am 16.3 NW 6 7 1022.9 - - - - - - - - -
30/07:50am 16.3 WNW 6 8 1022.8 - - - - - - - - -
30/07:40am 16.3 WNW 6 7 1022.6 - - - - - - - - -
30/07:30am 16.4 NW 6 8 1022.5 - - - - - - - - -
30/07:20am 16.4 NW 7 8 1022.5 - - - - - - - - -
30/07:10am 16.4 WNW 7 8 1022.4 - - - - - - - - -
30/07:00am 16.4 WNW 6 8 1022.4 - - - - - - - - -
30/06:50am 16.4 WNW 7 8 1022.4 - - - - - - - - -
30/06:40am 16.4 WNW 7 8 1022.4 - - - - - - - - -
30/06:30am 16.4 WNW 6 7 1022.3 - - - - - - - - -
30/06:20am 16.4 WNW 7 8 1022.4 - - - - - - - - -
30/06:10am 16.5 WNW 7 8 1022.5 - - - - - - - - -
30/06:00am 16.5 WNW 6 8 1022.5 - - - - - - - - -
30/05:50am 16.7 WNW 6 8 1022.5 - - - - - - - - -
30/05:40am 16.8 WNW 6 7 1022.5 - - - - - - - - -
30/05:30am 16.7 WNW 6 7 1022.5 - - - - - - - - -
30/05:20am 16.7 WNW 6 7 1022.4 - - - - - - - - -
30/05:10am 16.8 WNW 6 7 1022.4 - - - - - - - - -
30/05:00am 16.8 WNW 5 6 1022.5 - - - - - - - - -
30/04:50am 16.8 WNW 5 7 1022.6 - - - - - - - - -
30/04:40am 16.9 WNW 6 7 1022.7 - - - - - - - - -
30/04:30am 16.7 WNW 6 7 1022.7 - - - - - - - - -
30/04:20am 16.7 WNW 6 7 1022.8 - - - - - - - - -
30/04:10am 16.6 WNW 6 7 1022.9 - - - - - - - - -
30/04:00am 16.6 WNW 5 7 1022.9 - - - - - - - - -
30/03:50am 16.6 WNW 5 6 1023.0 - - - - - - - - -
30/03:40am 16.6 W 4 5 1023.1 - - - - - - - - -

Other Formats:

Comma delimited format used in spreadsheet applications
http://www.bom.gov.au/fwo/IDV60701/IDV60701.55039.axf

JavaScript Object Notation format (JSON) in row-major order
http://www.bom.gov.au/fwo/IDV60701/IDV60701.55039.json